Ghat Airport


Codes: HLGT/GHT
Name: Ghat Airport
City: Ghat
Country: Libya
Elevation: 2296 ft.
Wikipedia:

Photos at Ghat Airport


   Photos courtesy of SpottingLog. You can add your own sightings and photos by signing up for a free trial today.



No photos found.

Weather at Ghat Airport


Time (UTC)DescriptionTempratureWindCloud coverageVisibilityPressureHumidity
18-Apr-2024 00:00Clear Sky20°C2 mph, NW0%10000m1015hPa24%
18-Apr-2024 03:00Clear Sky20°C2 mph, SE0%10000m1015hPa25%
18-Apr-2024 06:00Clear Sky21°C4 mph, S0%10000m1016hPa24%
18-Apr-2024 09:00Clear Sky26°C4 mph, SE0%10000m1016hPa16%
18-Apr-2024 12:00Clear Sky30°C2 mph, E0%10000m1013hPa11%
18-Apr-2024 15:00Clear Sky32°C4 mph, NE0%10000m1011hPa8%
18-Apr-2024 18:00Clear Sky29°C7 mph, NE0%10000m1011hPa9%
18-Apr-2024 21:00Clear Sky26°C7 mph, SE0%10000m1012hPa10%
19-Apr-2024 00:00Clear Sky24°C4 mph, S0%10000m1012hPa12%
19-Apr-2024 03:00Clear Sky22°C7 mph, S0%10000m1012hPa13%
19-Apr-2024 06:00Clear Sky23°C7 mph, S0%10000m1013hPa13%
19-Apr-2024 09:00Clear Sky31°C7 mph, S0%10000m1012hPa8%
19-Apr-2024 12:00Clear Sky35°C4 mph, NE0%10000m1009hPa6%
19-Apr-2024 15:00Clear Sky36°C9 mph, N0%10000m1006hPa5%
19-Apr-2024 18:00Clear Sky31°C11 mph, NE0%10000m1007hPa7%
19-Apr-2024 21:00Clear Sky27°C4 mph, NW3%10000m1010hPa9%
20-Apr-2024 00:00Clear Sky25°C7 mph, NW3%10000m1010hPa10%
20-Apr-2024 03:00Clear Sky23°C4 mph, NW3%10000m1009hPa12%
20-Apr-2024 06:00Clear Sky22°C7 mph, NW3%10000m1011hPa12%
20-Apr-2024 09:00Clear Sky28°C2 mph, N2%10000m1011hPa9%
20-Apr-2024 12:00Clear Sky35°C7 mph, S2%10000m1007hPa6%
20-Apr-2024 15:00Scattered Clouds37°C11 mph, SE27%10000m1003hPa5%
20-Apr-2024 18:00Scattered Clouds33°C18 mph, SW48%10000m1004hPa5%
20-Apr-2024 21:00Broken Clouds30°C13 mph, SW78%10000m1006hPa7%
21-Apr-2024 00:00Overcast Clouds29°C11 mph, S85%10000m1004hPa8%
21-Apr-2024 03:00Overcast Clouds27°C9 mph, S100%10000m1004hPa8%
21-Apr-2024 06:00Overcast Clouds27°C9 mph, S92%10000m1005hPa9%
21-Apr-2024 09:00Broken Clouds35°C16 mph, S58%10000m1005hPa5%
21-Apr-2024 12:00Broken Clouds38°C20 mph, SW71%10000m1003hPa5%
21-Apr-2024 15:00Overcast Clouds38°C20 mph, SW98%10000m1001hPa4%
21-Apr-2024 18:00Overcast Clouds33°C7 mph, SW100%10000m1000hPa5%
21-Apr-2024 21:00Overcast Clouds30°C4 mph, SW95%10000m1003hPa6%
22-Apr-2024 00:00Overcast Clouds28°C7 mph, NW98%10000m1002hPa7%
22-Apr-2024 03:00Overcast Clouds26°C2 mph, W99%10000m1002hPa9%
22-Apr-2024 06:00Overcast Clouds28°C2 mph, S100%10000m1004hPa9%
22-Apr-2024 09:00Clear Sky34°C4 mph, W10%10000m1004hPa6%
22-Apr-2024 12:00Few Clouds38°C22 mph, SW12%10000m1002hPa4%
22-Apr-2024 15:00Clear Sky39°C27 mph, W5%10000m1000hPa4%
22-Apr-2024 18:00Clear Sky34°C16 mph, W3%10000m1002hPa5%
22-Apr-2024 21:00Broken Clouds30°C9 mph, W61%10000m1005hPa7%